Terminal Aerodrome Forecast
Issued by NWS Rapid City, SD

Home | Current Version | Previous Version | Text Only | Print | Product List | Glossary Off
Versions: 1 2 3 4 5 6 7 8 9 10 11 12 13

000
FTUS43 KUNR 271721
TAFRAP
TAF
KRAP 271721Z 2718/2818 01006KT P6SM -SHRA SCT050 OVC100
     FM272100 36010KT P6SM BKN120
     FM280300 VRB04KT P6SM SCT200=

USA.gov is the U.S. government's official web portal to all federal, state and local government web resources and services.